sensor_id;sensor_type;location;lat;lon;timestamp;temperature;humidity
14006;DHT22;7078;51.542;7.314;2023-04-01T00:00:15;10.00;99.90
14006;DHT22;7078;51.542;7.314;2023-04-01T00:02:41;10.00;99.90
14006;DHT22;7078;51.542;7.314;2023-04-01T00:05:07;10.00;99.90
14006;DHT22;7078;51.542;7.314;2023-04-01T00:07:33;9.90;99.90
14006;DHT22;7078;51.542;7.314;2023-04-01T00:09:59;9.90;99.90
14006;DHT22;7078;51.542;7.314;2023-04-01T00:12:24;9.80;99.90
14006;DHT22;7078;51.542;7.314;2023-04-01T00:14:50;9.90;99.90
14006;DHT22;7078;51.542;7.314;2023-04-01T00:17:16;9.90;99.90
14006;DHT22;7078;51.542;7.314;2023-04-01T00:19:42;9.80;99.90
14006;DHT22;7078;51.542;7.314;2023-04-01T00:22:07;9.80;99.90
14006;DHT22;7078;51.542;7.314;2023-04-01T00:24:37;9.80;99.90
14006;DHT22;7078;51.542;7.314;2023-04-01T00:27:03;9.80;99.90
14006;DHT22;7078;51.542;7.314;2023-04-01T00:29:28;9.80;99.90
14006;DHT22;7078;51.542;7.314;2023-04-01T00:31:56;9.80;99.90
14006;DHT22;7078;51.542;7.314;2023-04-01T00:34:22;9.80;99.90
14006;DHT22;7078;51.542;7.314;2023-04-01T00:36:49;9.80;99.90
14006;DHT22;7078;51.542;7.314;2023-04-01T00:39:16;9.70;99.90
14006;DHT22;7078;51.542;7.314;2023-04-01T00:41:41;9.70;99.90
14006;DHT22;7078;51.542;7.314;2023-04-01T00:44:28;9.70;99.90
14006;DHT22;7078;51.542;7.314;2023-04-01T00:46:55;9.70;99.90
14006;DHT22;7078;51.542;7.314;2023-04-01T00:49:27;9.60;99.90
14006;DHT22;7078;51.542;7.314;2023-04-01T00:51:56;9.70;99.90
14006;DHT22;7078;51.542;7.314;2023-04-01T00:54:24;9.70;99.90
14006;DHT22;7078;51.542;7.314;2023-04-01T00:56:54;9.90;99.90
14006;DHT22;7078;51.542;7.314;2023-04-01T00:59:33;9.60;99.90
14006;DHT22;7078;51.542;7.314;2023-04-01T01:02:01;9.60;99.90
14006;DHT22;7078;51.542;7.314;2023-04-01T01:04:32;9.70;99.90
14006;DHT22;7078;51.542;7.314;2023-04-01T01:12:31;9.70;99.90
14006;DHT22;7078;51.542;7.314;2023-04-01T01:20:50;9.70;99.90
14006;DHT22;7078;51.542;7.314;2023-04-01T01:38:00;9.60;99.90
14006;DHT22;7078;51.542;7.314;2023-04-01T01:40:28;9.60;99.90
14006;DHT22;7078;51.542;7.314;2023-04-01T01:43:00;9.60;99.90
14006;DHT22;7078;51.542;7.314;2023-04-01T01:45:29;9.60;99.90
14006;DHT22;7078;51.542;7.314;2023-04-01T01:47:56;9.60;99.90
14006;DHT22;7078;51.542;7.314;2023-04-01T01:50:23;9.70;99.90
14006;DHT22;7078;51.542;7.314;2023-04-01T01:52:51;9.60;99.90
14006;DHT22;7078;51.542;7.314;2023-04-01T01:55:30;9.60;99.90
14006;DHT22;7078;51.542;7.314;2023-04-01T01:57:59;9.60;99.90
14006;DHT22;7078;51.542;7.314;2023-04-01T02:00:27;9.60;99.90
14006;DHT22;7078;51.542;7.314;2023-04-01T02:02:53;9.60;99.90
14006;DHT22;7078;51.542;7.314;2023-04-01T02:05:23;9.60;99.90
14006;DHT22;7078;51.542;7.314;2023-04-01T02:07:57;9.50;99.90
14006;DHT22;7078;51.542;7.314;2023-04-01T02:10:26;9.50;99.90
14006;DHT22;7078;51.542;7.314;2023-04-01T02:12:54;9.50;99.90
14006;DHT22;7078;51.542;7.314;2023-04-01T02:15:22;9.60;99.90
14006;DHT22;7078;51.542;7.314;2023-04-01T02:17:49;9.70;99.90
14006;DHT22;7078;51.542;7.314;2023-04-01T02:20:20;9.50;99.90
14006;DHT22;7078;51.542;7.314;2023-04-01T02:22:57;9.50;99.90
14006;DHT22;7078;51.542;7.314;2023-04-01T02:25:29;9.50;99.90
14006;DHT22;7078;51.542;7.314;2023-04-01T02:27:57;9.60;99.90
14006;DHT22;7078;51.542;7.314;2023-04-01T02:30:23;9.50;99.90
14006;DHT22;7078;51.542;7.314;2023-04-01T02:32:50;9.50;99.90
14006;DHT22;7078;51.542;7.314;2023-04-01T02:35:17;9.50;99.90
14006;DHT22;7078;51.542;7.314;2023-04-01T02:37:44;9.50;99.90
14006;DHT22;7078;51.542;7.314;2023-04-01T02:40:12;9.60;99.90
14006;DHT22;7078;51.542;7.314;2023-04-01T02:42:39;9.50;99.90
14006;DHT22;7078;51.542;7.314;2023-04-01T02:45:06;9.50;99.90
14006;DHT22;7078;51.542;7.314;2023-04-01T02:47:31;9.50;99.90
14006;DHT22;7078;51.542;7.314;2023-04-01T02:49:57;9.50;99.90
14006;DHT22;7078;51.542;7.314;2023-04-01T02:52:28;9.50;99.90
14006;DHT22;7078;51.542;7.314;2023-04-01T02:54:54;9.50;99.90
14006;DHT22;7078;51.542;7.314;2023-04-01T02:57:20;9.40;99.90
14006;DHT22;7078;51.542;7.314;2023-04-01T02:59:46;9.40;99.90
14006;DHT22;7078;51.542;7.314;2023-04-01T03:02:12;9.50;99.90
14006;DHT22;7078;51.542;7.314;2023-04-01T03:04:37;9.40;99.90
14006;DHT22;7078;51.542;7.314;2023-04-01T03:07:03;9.40;99.90
14006;DHT22;7078;51.542;7.314;2023-04-01T03:09:28;9.60;99.90
14006;DHT22;7078;51.542;7.314;2023-04-01T03:11:54;9.40;99.90
14006;DHT22;7078;51.542;7.314;2023-04-01T03:14:20;9.50;99.90
14006;DHT22;7078;51.542;7.314;2023-04-01T03:16:46;9.50;99.90
14006;DHT22;7078;51.542;7.314;2023-04-01T03:19:11;9.40;99.90
14006;DHT22;7078;51.542;7.314;2023-04-01T03:21:37;9.40;99.90
14006;DHT22;7078;51.542;7.314;2023-04-01T03:24:03;9.40;99.90
14006;DHT22;7078;51.542;7.314;2023-04-01T03:26:28;9.40;99.90
14006;DHT22;7078;51.542;7.314;2023-04-01T03:28:54;9.60;99.90
14006;DHT22;7078;51.542;7.314;2023-04-01T03:31:21;9.40;99.90
14006;DHT22;7078;51.542;7.314;2023-04-01T03:33:46;9.40;99.90
14006;DHT22;7078;51.542;7.314;2023-04-01T03:36:12;9.40;99.90
14006;DHT22;7078;51.542;7.314;2023-04-01T03:38:40;9.40;99.90
14006;DHT22;7078;51.542;7.314;2023-04-01T03:41:06;9.40;99.90
14006;DHT22;7078;51.542;7.314;2023-04-01T03:43:32;9.40;99.90
14006;DHT22;7078;51.542;7.314;2023-04-01T03:45:58;9.40;99.90
14006;DHT22;7078;51.542;7.314;2023-04-01T03:48:24;9.40;99.90
14006;DHT22;7078;51.542;7.314;2023-04-01T03:50:51;9.40;99.90
14006;DHT22;7078;51.542;7.314;2023-04-01T03:53:17;9.40;99.90
14006;DHT22;7078;51.542;7.314;2023-04-01T03:55:42;9.40;99.90
14006;DHT22;7078;51.542;7.314;2023-04-01T03:58:08;9.40;99.90
14006;DHT22;7078;51.542;7.314;2023-04-01T04:00:34;9.40;99.90
14006;DHT22;7078;51.542;7.314;2023-04-01T04:03:00;9.30;99.90
14006;DHT22;7078;51.542;7.314;2023-04-01T04:05:26;9.40;99.90
14006;DHT22;7078;51.542;7.314;2023-04-01T04:07:52;9.30;99.90
14006;DHT22;7078;51.542;7.314;2023-04-01T04:10:18;9.30;99.90
14006;DHT22;7078;51.542;7.314;2023-04-01T04:12:44;9.40;99.90
14006;DHT22;7078;51.542;7.314;2023-04-01T04:15:10;9.40;99.90
14006;DHT22;7078;51.542;7.314;2023-04-01T04:17:36;9.40;99.90
14006;DHT22;7078;51.542;7.314;2023-04-01T04:20:02;9.40;99.90
14006;DHT22;7078;51.542;7.314;2023-04-01T04:22:28;9.40;99.90
14006;DHT22;7078;51.542;7.314;2023-04-01T04:24:53;9.40;99.90
14006;DHT22;7078;51.542;7.314;2023-04-01T04:27:19;9.40;99.90
14006;DHT22;7078;51.542;7.314;2023-04-01T04:29:45;9.40;99.90
14006;DHT22;7078;51.542;7.314;2023-04-01T04:32:10;9.40;99.90
14006;DHT22;7078;51.542;7.314;2023-04-01T04:34:36;9.40;99.90
14006;DHT22;7078;51.542;7.314;2023-04-01T04:37:02;9.40;99.90
14006;DHT22;7078;51.542;7.314;2023-04-01T04:39:27;9.40;99.90
14006;DHT22;7078;51.542;7.314;2023-04-01T04:41:53;9.40;99.90
14006;DHT22;7078;51.542;7.314;2023-04-01T04:44:19;9.40;99.90
14006;DHT22;7078;51.542;7.314;2023-04-01T04:46:44;9.40;99.90
14006;DHT22;7078;51.542;7.314;2023-04-01T04:49:10;9.40;99.90
14006;DHT22;7078;51.542;7.314;2023-04-01T04:51:36;9.40;99.90
14006;DHT22;7078;51.542;7.314;2023-04-01T04:54:02;9.40;99.90
14006;DHT22;7078;51.542;7.314;2023-04-01T04:56:28;9.40;99.90
14006;DHT22;7078;51.542;7.314;2023-04-01T04:58:54;9.40;99.90
14006;DHT22;7078;51.542;7.314;2023-04-01T05:01:20;9.40;99.90
14006;DHT22;7078;51.542;7.314;2023-04-01T05:03:46;9.50;99.90
14006;DHT22;7078;51.542;7.314;2023-04-01T05:06:13;9.50;99.90
14006;DHT22;7078;51.542;7.314;2023-04-01T05:08:40;9.50;99.90
14006;DHT22;7078;51.542;7.314;2023-04-01T05:11:09;9.50;99.90
14006;DHT22;7078;51.542;7.314;2023-04-01T05:13:36;9.60;99.90
14006;DHT22;7078;51.542;7.314;2023-04-01T05:16:01;9.50;99.90
14006;DHT22;7078;51.542;7.314;2023-04-01T05:18:27;9.50;99.90
14006;DHT22;7078;51.542;7.314;2023-04-01T05:20:54;9.50;99.90
14006;DHT22;7078;51.542;7.314;2023-04-01T05:23:21;9.50;99.90
14006;DHT22;7078;51.542;7.314;2023-04-01T05:25:48;9.60;99.90
14006;DHT22;7078;51.542;7.314;2023-04-01T05:28:14;9.60;99.90
14006;DHT22;7078;51.542;7.314;2023-04-01T05:30:41;9.60;99.90
14006;DHT22;7078;51.542;7.314;2023-04-01T05:33:07;9.60;99.90
14006;DHT22;7078;51.542;7.314;2023-04-01T05:35:33;9.60;99.90
14006;DHT22;7078;51.542;7.314;2023-04-01T05:37:58;9.60;99.90
14006;DHT22;7078;51.542;7.314;2023-04-01T05:40:24;9.60;99.90
14006;DHT22;7078;51.542;7.314;2023-04-01T05:42:49;9.60;99.90
14006;DHT22;7078;51.542;7.314;2023-04-01T05:45:15;9.60;99.90
14006;DHT22;7078;51.542;7.314;2023-04-01T05:47:41;9.60;99.90
14006;DHT22;7078;51.542;7.314;2023-04-01T05:50:08;9.60;99.90
14006;DHT22;7078;51.542;7.314;2023-04-01T05:52:34;9.60;99.90
14006;DHT22;7078;51.542;7.314;2023-04-01T05:54:59;9.60;99.90
14006;DHT22;7078;51.542;7.314;2023-04-01T05:57:26;9.50;99.90
14006;DHT22;7078;51.542;7.314;2023-04-01T05:59:51;9.70;99.90
14006;DHT22;7078;51.542;7.314;2023-04-01T06:02:17;9.80;99.90
14006;DHT22;7078;51.542;7.314;2023-04-01T06:04:43;9.70;99.90
14006;DHT22;7078;51.542;7.314;2023-04-01T06:07:13;9.60;99.90
14006;DHT22;7078;51.542;7.314;2023-04-01T06:09:39;9.80;99.90
14006;DHT22;7078;51.542;7.314;2023-04-01T06:12:16;9.90;99.90
14006;DHT22;7078;51.542;7.314;2023-04-01T06:15:01;9.90;99.90
14006;DHT22;7078;51.542;7.314;2023-04-01T06:20:38;10.00;99.90
14006;DHT22;7078;51.542;7.314;2023-04-01T06:23:18;10.00;99.90
14006;DHT22;7078;51.542;7.314;2023-04-01T06:31:38;9.90;99.90
14006;DHT22;7078;51.542;7.314;2023-04-01T06:43:25;9.90;99.90
14006;DHT22;7078;51.542;7.314;2023-04-01T06:52:26;9.90;99.90
14006;DHT22;7078;51.542;7.314;2023-04-01T06:55:23;9.90;99.90
14006;DHT22;7078;51.542;7.314;2023-04-01T06:57:53;9.80;99.90
14006;DHT22;7078;51.542;7.314;2023-04-01T07:00:37;9.80;99.90
14006;DHT22;7078;51.542;7.314;2023-04-01T07:05:36;9.80;99.90
14006;DHT22;7078;51.542;7.314;2023-04-01T07:08:04;9.90;99.90
14006;DHT22;7078;51.542;7.314;2023-04-01T07:10:50;9.90;99.90
14006;DHT22;7078;51.542;7.314;2023-04-01T07:13:47;9.90;99.90
14006;DHT22;7078;51.542;7.314;2023-04-01T07:21:49;9.90;99.90
14006;DHT22;7078;51.542;7.314;2023-04-01T07:24:34;9.90;99.90
14006;DHT22;7078;51.542;7.314;2023-04-01T07:27:01;9.90;99.90
14006;DHT22;7078;51.542;7.314;2023-04-01T07:29:27;9.80;99.90
14006;DHT22;7078;51.542;7.314;2023-04-01T07:35:07;9.80;99.90
14006;DHT22;7078;51.542;7.314;2023-04-01T07:43:23;10.00;99.90
14006;DHT22;7078;51.542;7.314;2023-04-01T07:48:43;10.10;99.90
14006;DHT22;7078;51.542;7.314;2023-04-01T07:51:47;10.00;99.90
14006;DHT22;7078;51.542;7.314;2023-04-01T07:57:32;10.00;99.90
14006;DHT22;7078;51.542;7.314;2023-04-01T08:00:19;10.00;99.90
14006;DHT22;7078;51.542;7.314;2023-04-01T08:05:26;10.00;99.90
14006;DHT22;7078;51.542;7.314;2023-04-01T08:13:32;10.10;99.90
14006;DHT22;7078;51.542;7.314;2023-04-01T08:18:47;10.30;99.90
14006;DHT22;7078;51.542;7.314;2023-04-01T08:21:23;10.20;99.90
14006;DHT22;7078;51.542;7.314;2023-04-01T08:23:52;10.20;99.90
14006;DHT22;7078;51.542;7.314;2023-04-01T08:26:41;10.20;99.90
14006;DHT22;7078;51.542;7.314;2023-04-01T08:29:20;10.30;99.90
14006;DHT22;7078;51.542;7.314;2023-04-01T08:31:55;10.30;99.90
14006;DHT22;7078;51.542;7.314;2023-04-01T08:34:38;10.30;99.90
14006;DHT22;7078;51.542;7.314;2023-04-01T08:37:12;10.30;99.90
14006;DHT22;7078;51.542;7.314;2023-04-01T08:39:46;10.20;99.90
14006;DHT22;7078;51.542;7.314;2023-04-01T08:56:26;10.20;99.90
14006;DHT22;7078;51.542;7.314;2023-04-01T09:04:38;10.20;99.90
14006;DHT22;7078;51.542;7.314;2023-04-01T09:10:11;10.20;99.90
14006;DHT22;7078;51.542;7.314;2023-04-01T09:16:01;10.30;99.90
14006;DHT22;7078;51.542;7.314;2023-04-01T09:21:57;10.30;99.90
14006;DHT22;7078;51.542;7.314;2023-04-01T09:35:21;10.30;99.90
14006;DHT22;7078;51.542;7.314;2023-04-01T09:43:45;10.20;99.90
14006;DHT22;7078;51.542;7.314;2023-04-01T09:49:33;10.30;99.90
14006;DHT22;7078;51.542;7.314;2023-04-01T09:52:36;10.30;99.90
14006;DHT22;7078;51.542;7.314;2023-04-01T09:55:21;10.30;99.90
14006;DHT22;7078;51.542;7.314;2023-04-01T10:23:21;10.70;99.90
14006;DHT22;7078;51.542;7.314;2023-04-01T10:26:26;10.70;99.90
14006;DHT22;7078;51.542;7.314;2023-04-01T10:40:35;11.00;99.90
14006;DHT22;7078;51.542;7.314;2023-04-01T10:44:03;10.90;99.90
14006;DHT22;7078;51.542;7.314;2023-04-01T10:46:37;10.90;99.90
14006;DHT22;7078;51.542;7.314;2023-04-01T10:49:11;10.80;99.90
14006;DHT22;7078;51.542;7.314;2023-04-01T10:57:07;10.80;99.90
14006;DHT22;7078;51.542;7.314;2023-04-01T11:00:15;10.80;99.90
14006;DHT22;7078;51.542;7.314;2023-04-01T11:11:28;11.00;99.90
14006;DHT22;7078;51.542;7.314;2023-04-01T11:14:32;11.00;99.90
14006;DHT22;7078;51.542;7.314;2023-04-01T11:17:42;11.00;99.90
14006;DHT22;7078;51.542;7.314;2023-04-01T11:33:47;11.00;99.90
14006;DHT22;7078;51.542;7.314;2023-04-01T11:36:37;11.00;99.90
14006;DHT22;7078;51.542;7.314;2023-04-01T11:39:20;11.00;99.90
14006;DHT22;7078;51.542;7.314;2023-04-01T11:44:35;10.90;99.90
14006;DHT22;7078;51.542;7.314;2023-04-01T11:50:26;10.90;99.90
14006;DHT22;7078;51.542;7.314;2023-04-01T11:53:15;10.90;99.90
14006;DHT22;7078;51.542;7.314;2023-04-01T11:58:31;10.90;99.90
14006;DHT22;7078;51.542;7.314;2023-04-01T12:01:27;10.90;99.90
14006;DHT22;7078;51.542;7.314;2023-04-01T12:04:12;10.80;99.90
14006;DHT22;7078;51.542;7.314;2023-04-01T12:07:13;11.00;99.90
14006;DHT22;7078;51.542;7.314;2023-04-01T12:19:09;11.00;99.90
14006;DHT22;7078;51.542;7.314;2023-04-01T12:24:25;10.80;99.90
14006;DHT22;7078;51.542;7.314;2023-04-01T12:29:59;10.90;99.90
14006;DHT22;7078;51.542;7.314;2023-04-01T12:32:45;10.90;99.90
14006;DHT22;7078;51.542;7.314;2023-04-01T12:35:24;10.90;99.90
14006;DHT22;7078;51.542;7.314;2023-04-01T12:40:25;10.90;99.90
14006;DHT22;7078;51.542;7.314;2023-04-01T12:48:23;10.70;99.90
14006;DHT22;7078;51.542;7.314;2023-04-01T12:59:58;10.70;99.90
14006;DHT22;7078;51.542;7.314;2023-04-01T13:05:42;10.80;99.90
14006;DHT22;7078;51.542;7.314;2023-04-01T13:08:38;10.90;99.90
14006;DHT22;7078;51.542;7.314;2023-04-01T13:16:55;11.00;99.90
14006;DHT22;7078;51.542;7.314;2023-04-01T13:19:50;11.00;99.90
14006;DHT22;7078;51.542;7.314;2023-04-01T13:22:35;11.00;99.90
14006;DHT22;7078;51.542;7.314;2023-04-01T13:27:43;10.90;99.90
14006;DHT22;7078;51.542;7.314;2023-04-01T13:30:38;11.00;99.90
14006;DHT22;7078;51.542;7.314;2023-04-01T13:33:30;10.90;99.90
14006;DHT22;7078;51.542;7.314;2023-04-01T13:39:15;11.00;99.90
14006;DHT22;7078;51.542;7.314;2023-04-01T13:45:00;11.00;99.90
14006;DHT22;7078;51.542;7.314;2023-04-01T14:01:13;11.20;99.90
14006;DHT22;7078;51.542;7.314;2023-04-01T14:12:36;11.10;99.90
14006;DHT22;7078;51.542;7.314;2023-04-01T14:21:05;11.00;99.90
14006;DHT22;7078;51.542;7.314;2023-04-01T14:24:01;11.00;99.90
14006;DHT22;7078;51.542;7.314;2023-04-01T14:32:16;10.90;99.90
14006;DHT22;7078;51.542;7.314;2023-04-01T14:43:38;10.80;99.90
14006;DHT22;7078;51.542;7.314;2023-04-01T14:49:24;10.80;99.90
14006;DHT22;7078;51.542;7.314;2023-04-01T14:51:56;10.80;99.90
14006;DHT22;7078;51.542;7.314;2023-04-01T14:54:37;10.80;99.90
14006;DHT22;7078;51.542;7.314;2023-04-01T14:57:24;10.80;99.90
14006;DHT22;7078;51.542;7.314;2023-04-01T15:02:57;11.00;99.90
14006;DHT22;7078;51.542;7.314;2023-04-01T15:05:47;11.00;99.90
14006;DHT22;7078;51.542;7.314;2023-04-01T15:08:22;11.00;99.90
14006;DHT22;7078;51.542;7.314;2023-04-01T15:16:40;11.10;99.90
14006;DHT22;7078;51.542;7.314;2023-04-01T15:27:10;10.90;99.90
14006;DHT22;7078;51.542;7.314;2023-04-01T15:35:43;11.10;99.90
14006;DHT22;7078;51.542;7.314;2023-04-01T15:38:38;11.10;99.90
14006;DHT22;7078;51.542;7.314;2023-04-01T15:41:41;11.10;99.90
14006;DHT22;7078;51.542;7.314;2023-04-01T15:55:37;10.90;99.90
14006;DHT22;7078;51.542;7.314;2023-04-01T15:58:33;10.80;99.90
14006;DHT22;7078;51.542;7.314;2023-04-01T16:01:33;10.90;99.90
14006;DHT22;7078;51.542;7.314;2023-04-01T16:04:32;10.80;99.90
14006;DHT22;7078;51.542;7.314;2023-04-01T16:18:00;10.80;99.90
14006;DHT22;7078;51.542;7.314;2023-04-01T16:25:49;10.80;99.90
14006;DHT22;7078;51.542;7.314;2023-04-01T16:28:47;10.80;99.90
14006;DHT22;7078;51.542;7.314;2023-04-01T16:31:38;10.80;99.90
14006;DHT22;7078;51.542;7.314;2023-04-01T16:36:49;10.80;99.90
14006;DHT22;7078;51.542;7.314;2023-04-01T16:42:25;10.80;99.90
14006;DHT22;7078;51.542;7.314;2023-04-01T16:47:38;10.70;99.90
14006;DHT22;7078;51.542;7.314;2023-04-01T16:50:23;10.70;99.90
14006;DHT22;7078;51.542;7.314;2023-04-01T16:53:00;10.70;99.90
14006;DHT22;7078;51.542;7.314;2023-04-01T16:55:42;10.70;99.90
14006;DHT22;7078;51.542;7.314;2023-04-01T16:58:10;10.60;99.90
14006;DHT22;7078;51.542;7.314;2023-04-01T17:00:44;10.70;99.90
14006;DHT22;7078;51.542;7.314;2023-04-01T17:03:18;10.80;99.90
14006;DHT22;7078;51.542;7.314;2023-04-01T17:19:37;10.60;99.90
14006;DHT22;7078;51.542;7.314;2023-04-01T17:22:21;10.60;99.90
14006;DHT22;7078;51.542;7.314;2023-04-01T17:25:05;10.50;99.90
14006;DHT22;7078;51.542;7.314;2023-04-01T17:27:48;10.60;99.90
14006;DHT22;7078;51.542;7.314;2023-04-01T17:30:52;10.50;99.90
14006;DHT22;7078;51.542;7.314;2023-04-01T17:36:27;10.60;99.90
14006;DHT22;7078;51.542;7.314;2023-04-01T17:39:29;10.60;99.90
14006;DHT22;7078;51.542;7.314;2023-04-01T17:42:46;10.60;99.90
14006;DHT22;7078;51.542;7.314;2023-04-01T17:45:21;10.60;99.90
14006;DHT22;7078;51.542;7.314;2023-04-01T17:47:58;10.60;99.90
14006;DHT22;7078;51.542;7.314;2023-04-01T17:50:44;10.60;99.90
14006;DHT22;7078;51.542;7.314;2023-04-01T17:53:27;10.50;99.90
14006;DHT22;7078;51.542;7.314;2023-04-01T17:59:09;10.50;99.90
14006;DHT22;7078;51.542;7.314;2023-04-01T18:02:25;10.50;99.90
14006;DHT22;7078;51.542;7.314;2023-04-01T18:04:37;10.60;99.90
14006;DHT22;7078;51.542;7.314;2023-04-01T18:15:48;10.60;99.90
14006;DHT22;7078;51.542;7.314;2023-04-01T18:27:22;10.40;99.90
14006;DHT22;7078;51.542;7.314;2023-04-01T18:32:46;10.50;99.90
14006;DHT22;7078;51.542;7.314;2023-04-01T18:41:11;10.40;99.90
14006;DHT22;7078;51.542;7.314;2023-04-01T18:44:15;10.40;99.90
14006;DHT22;7078;51.542;7.314;2023-04-01T18:57:52;10.50;99.90
14006;DHT22;7078;51.542;7.314;2023-04-01T19:00:36;10.40;99.90
14006;DHT22;7078;51.542;7.314;2023-04-01T19:03:20;10.50;99.90
14006;DHT22;7078;51.542;7.314;2023-04-01T19:05:50;10.50;99.90
14006;DHT22;7078;51.542;7.314;2023-04-01T19:21:26;10.50;99.90
14006;DHT22;7078;51.542;7.314;2023-04-01T19:29:35;10.30;99.90
14006;DHT22;7078;51.542;7.314;2023-04-01T19:35:17;10.20;99.90
14006;DHT22;7078;51.542;7.314;2023-04-01T19:37:51;10.20;99.90
14006;DHT22;7078;51.542;7.314;2023-04-01T19:46:02;10.00;99.90
14006;DHT22;7078;51.542;7.314;2023-04-01T19:51:30;9.80;99.90
14006;DHT22;7078;51.542;7.314;2023-04-01T20:00:22;9.70;99.90
14006;DHT22;7078;51.542;7.314;2023-04-01T20:03:07;9.70;99.90
14006;DHT22;7078;51.542;7.314;2023-04-01T20:06:06;9.70;99.90
14006;DHT22;7078;51.542;7.314;2023-04-01T20:08:41;9.60;99.90
14006;DHT22;7078;51.542;7.314;2023-04-01T20:16:48;9.50;99.90
14006;DHT22;7078;51.542;7.314;2023-04-01T20:19:27;9.50;99.90
14006;DHT22;7078;51.542;7.314;2023-04-01T20:21:57;9.50;99.90
14006;DHT22;7078;51.542;7.314;2023-04-01T20:24:28;9.50;99.90
14006;DHT22;7078;51.542;7.314;2023-04-01T20:27:15;9.40;99.90
14006;DHT22;7078;51.542;7.314;2023-04-01T20:37:45;9.30;99.90
14006;DHT22;7078;51.542;7.314;2023-04-01T20:40:35;9.30;99.90
14006;DHT22;7078;51.542;7.314;2023-04-01T20:48:45;9.10;99.90
14006;DHT22;7078;51.542;7.314;2023-04-01T20:51:29;9.10;99.90
14006;DHT22;7078;51.542;7.314;2023-04-01T20:54:24;9.00;99.90
14006;DHT22;7078;51.542;7.314;2023-04-01T20:57:09;9.00;99.90
14006;DHT22;7078;51.542;7.314;2023-04-01T21:02:41;8.90;99.90
14006;DHT22;7078;51.542;7.314;2023-04-01T21:10:58;8.80;99.90
14006;DHT22;7078;51.542;7.314;2023-04-01T21:13:49;8.80;99.90
14006;DHT22;7078;51.542;7.314;2023-04-01T21:16:49;8.80;99.90
14006;DHT22;7078;51.542;7.314;2023-04-01T21:19:40;8.70;99.90
14006;DHT22;7078;51.542;7.314;2023-04-01T21:31:03;8.50;99.90
14006;DHT22;7078;51.542;7.314;2023-04-01T21:36:25;8.40;99.90
14006;DHT22;7078;51.542;7.314;2023-04-01T21:50:43;8.20;99.90
14006;DHT22;7078;51.542;7.314;2023-04-01T21:56:28;8.10;99.90
14006;DHT22;7078;51.542;7.314;2023-04-01T22:01:37;8.10;99.90
14006;DHT22;7078;51.542;7.314;2023-04-01T22:07:00;8.10;99.90
14006;DHT22;7078;51.542;7.314;2023-04-01T22:09:39;8.00;99.90
14006;DHT22;7078;51.542;7.314;2023-04-01T22:12:15;8.00;99.90
14006;DHT22;7078;51.542;7.314;2023-04-01T22:15:02;8.00;99.90
14006;DHT22;7078;51.542;7.314;2023-04-01T22:17:56;7.90;99.90
14006;DHT22;7078;51.542;7.314;2023-04-01T22:20:50;7.90;99.90
14006;DHT22;7078;51.542;7.314;2023-04-01T22:23:37;7.90;99.90
14006;DHT22;7078;51.542;7.314;2023-04-01T22:28:49;7.80;99.90
14006;DHT22;7078;51.542;7.314;2023-04-01T22:31:26;7.70;99.90
14006;DHT22;7078;51.542;7.314;2023-04-01T22:34:17;7.70;99.90
14006;DHT22;7078;51.542;7.314;2023-04-01T22:39:27;7.60;99.90
14006;DHT22;7078;51.542;7.314;2023-04-01T22:42:19;7.60;99.90
14006;DHT22;7078;51.542;7.314;2023-04-01T22:45:03;7.60;99.90
14006;DHT22;7078;51.542;7.314;2023-04-01T22:52:47;7.50;99.90
14006;DHT22;7078;51.542;7.314;2023-04-01T22:55:20;7.40;99.90
14006;DHT22;7078;51.542;7.314;2023-04-01T22:57:55;7.40;99.90
14006;DHT22;7078;51.542;7.314;2023-04-01T23:00:39;7.50;99.90
14006;DHT22;7078;51.542;7.314;2023-04-01T23:03:27;7.50;99.90
14006;DHT22;7078;51.542;7.314;2023-04-01T23:05:59;7.40;99.90
14006;DHT22;7078;51.542;7.314;2023-04-01T23:08:55;7.40;99.90
14006;DHT22;7078;51.542;7.314;2023-04-01T23:16:57;7.30;99.90
14006;DHT22;7078;51.542;7.314;2023-04-01T23:19:49;7.20;99.90
14006;DHT22;7078;51.542;7.314;2023-04-01T23:22:29;7.20;99.90
14006;DHT22;7078;51.542;7.314;2023-04-01T23:28:13;7.20;99.90
14006;DHT22;7078;51.542;7.314;2023-04-01T23:30:48;7.20;99.90
14006;DHT22;7078;51.542;7.314;2023-04-01T23:33:27;7.10;99.90
14006;DHT22;7078;51.542;7.314;2023-04-01T23:36:02;7.10;99.90
14006;DHT22;7078;51.542;7.314;2023-04-01T23:38:40;7.00;99.90
14006;DHT22;7078;51.542;7.314;2023-04-01T23:44:09;7.00;99.90
14006;DHT22;7078;51.542;7.314;2023-04-01T23:46:36;7.00;99.90
14006;DHT22;7078;51.542;7.314;2023-04-01T23:49:03;7.00;99.90
14006;DHT22;7078;51.542;7.314;2023-04-01T23:51:46;7.00;99.90
14006;DHT22;7078;51.542;7.314;2023-04-01T23:54:29;7.00;99.90
14006;DHT22;7078;51.542;7.314;2023-04-01T23:56:56;6.90;99.90
14006;DHT22;7078;51.542;7.314;2023-04-01T23:59:27;6.90;99.90
